sensor_id;sensor_type;location;lat;lon;timestamp;pressure;altitude;pressure_sealevel;temperature;humidity
48204;BME280;33994;50.998;5.864;2022-12-07T00:01:54;101329.16;;;4.22;99.15
48204;BME280;33994;50.998;5.864;2022-12-07T00:04:57;101328.38;;;4.25;99.19
48204;BME280;33994;50.998;5.864;2022-12-07T00:08:01;101317.94;;;4.22;99.31
48204;BME280;33994;50.998;5.864;2022-12-07T00:11:05;101310.16;;;4.20;99.21
48204;BME280;33994;50.998;5.864;2022-12-07T00:14:11;101316.22;;;4.21;99.32
48204;BME280;33994;50.998;5.864;2022-12-07T00:17:15;101307.53;;;4.19;99.66
48204;BME280;33994;50.998;5.864;2022-12-07T00:20:18;101307.50;;;4.17;99.33
48204;BME280;33994;50.998;5.864;2022-12-07T00:23:23;101307.44;;;4.14;99.30
48204;BME280;33994;50.998;5.864;2022-12-07T00:26:27;101298.78;;;4.12;99.53
48204;BME280;33994;50.998;5.864;2022-12-07T00:29:30;101298.75;;;4.10;99.67
48204;BME280;33994;50.998;5.864;2022-12-07T00:32:33;101297.91;;;4.11;99.23
48204;BME280;33994;50.998;5.864;2022-12-07T00:35:36;101298.72;;;4.09;99.58
48204;BME280;33994;50.998;5.864;2022-12-07T00:38:41;101303.81;;;4.04;99.50
48204;BME280;33994;50.998;5.864;2022-12-07T00:41:44;101302.91;;;4.02;99.82
48204;BME280;33994;50.998;5.864;2022-12-07T00:44:48;101300.31;;;4.02;99.96
48204;BME280;33994;50.998;5.864;2022-12-07T00:47:51;101298.59;;;4.03;100.00
48204;BME280;33994;50.998;5.864;2022-12-07T00:50:54;101297.72;;;4.02;100.00
48204;BME280;33994;50.998;5.864;2022-12-07T00:53:59;101305.47;;;4.01;100.00
48204;BME280;33994;50.998;5.864;2022-12-07T00:57:02;101308.94;;;4.03;100.00
48204;BME280;33994;50.998;5.864;2022-12-07T01:00:06;101307.28;;;4.05;100.00
48204;BME280;33994;50.998;5.864;2022-12-07T01:03:11;101307.22;;;4.02;100.00
48204;BME280;33994;50.998;5.864;2022-12-07T01:06:15;101300.31;;;4.02;100.00
48204;BME280;33994;50.998;5.864;2022-12-07T01:09:20;101306.34;;;4.01;100.00
48204;BME280;33994;50.998;5.864;2022-12-07T01:12:22;101308.06;;;4.02;100.00
48204;BME280;33994;50.998;5.864;2022-12-07T01:15:26;101301.19;;;4.03;100.00
48204;BME280;33994;50.998;5.864;2022-12-07T01:18:30;101310.66;;;4.02;100.00
48204;BME280;33994;50.998;5.864;2022-12-07T01:21:35;101306.34;;;4.01;100.00
48204;BME280;33994;50.998;5.864;2022-12-07T01:24:39;101299.44;;;4.00;100.00
48204;BME280;33994;50.998;5.864;2022-12-07T01:27:42;101304.59;;;4.00;100.00
48204;BME280;33994;50.998;5.864;2022-12-07T01:30:54;101303.69;;;3.98;100.00
48204;BME280;33994;50.998;5.864;2022-12-07T01:33:59;101308.84;;;3.97;100.00
48204;BME280;33994;50.998;5.864;2022-12-07T01:37:02;101308.84;;;3.97;100.00
48204;BME280;33994;50.998;5.864;2022-12-07T01:40:08;101307.91;;;3.93;100.00
48204;BME280;33994;50.998;5.864;2022-12-07T01:43:16;101316.56;;;3.95;100.00
48204;BME280;33994;50.998;5.864;2022-12-07T01:46:21;101310.50;;;3.95;100.00
48204;BME280;33994;50.998;5.864;2022-12-07T01:49:31;101309.66;;;3.94;100.00
48204;BME280;33994;50.998;5.864;2022-12-07T01:52:37;101303.59;;;3.94;100.00
48204;BME280;33994;50.998;5.864;2022-12-07T01:55:44;101297.56;;;3.93;100.00
48204;BME280;33994;50.998;5.864;2022-12-07T01:58:49;101297.56;;;3.93;100.00
48204;BME280;33994;50.998;5.864;2022-12-07T02:01:52;101301.03;;;3.95;100.00
48204;BME280;33994;50.998;5.864;2022-12-07T02:04:57;101295.00;;;3.95;100.00
48204;BME280;33994;50.998;5.864;2022-12-07T02:08:03;101297.56;;;3.95;100.00
48204;BME280;33994;50.998;5.864;2022-12-07T02:11:08;101293.19;;;3.92;100.00
48204;BME280;33994;50.998;5.864;2022-12-07T02:14:11;101287.16;;;3.92;100.00
48204;BME280;33994;50.998;5.864;2022-12-07T02:17:20;101286.34;;;3.93;100.00
48204;BME280;33994;50.998;5.864;2022-12-07T02:20:29;101289.75;;;3.92;100.00
48204;BME280;33994;50.998;5.864;2022-12-07T02:27:45;101293.25;;;3.94;100.00
48204;BME280;33994;50.998;5.864;2022-12-07T02:30:52;101295.00;;;3.95;100.00
48204;BME280;33994;50.998;5.864;2022-12-07T02:34:04;101293.25;;;3.94;100.00
48204;BME280;33994;50.998;5.864;2022-12-07T02:37:19;101297.56;;;3.93;100.00
48204;BME280;33994;50.998;5.864;2022-12-07T02:40:28;101287.16;;;3.90;100.00
48204;BME280;33994;50.998;5.864;2022-12-07T02:43:35;101295.75;;;3.89;100.00
48204;BME280;33994;50.998;5.864;2022-12-07T02:46:46;101283.59;;;3.85;100.00
48204;BME280;33994;50.998;5.864;2022-12-07T02:49:51;101283.59;;;3.85;100.00
48204;BME280;33994;50.998;5.864;2022-12-07T02:52:55;101284.41;;;3.84;100.00
48204;BME280;33994;50.998;5.864;2022-12-07T02:55:59;101277.50;;;3.81;100.00
48204;BME280;33994;50.998;5.864;2022-12-07T02:59:12;101282.53;;;3.77;100.00
48204;BME280;33994;50.998;5.864;2022-12-07T03:02:24;101279.97;;;3.77;100.00
48204;BME280;33994;50.998;5.864;2022-12-07T03:05:45;101292.94;;;3.78;100.00
48204;BME280;33994;50.998;5.864;2022-12-07T03:08:56;101283.47;;;3.79;100.00
48204;BME280;33994;50.998;5.864;2022-12-07T03:12:08;101284.34;;;3.79;100.00
48204;BME280;33994;50.998;5.864;2022-12-07T03:15:17;101289.56;;;3.81;100.00
48204;BME280;33994;50.998;5.864;2022-12-07T03:18:26;101284.38;;;3.81;100.00
48204;BME280;33994;50.998;5.864;2022-12-07T03:21:33;101288.72;;;3.82;100.00
48204;BME280;33994;50.998;5.864;2022-12-07T03:24:42;101287.88;;;3.84;100.00
48204;BME280;33994;50.998;5.864;2022-12-07T03:27:50;101287.00;;;3.84;100.00
48204;BME280;33994;50.998;5.864;2022-12-07T03:30:58;101283.59;;;3.85;100.00
48204;BME280;33994;50.998;5.864;2022-12-07T03:34:10;101294.84;;;3.87;100.00
48204;BME280;33994;50.998;5.864;2022-12-07T03:37:17;101291.38;;;3.85;100.00
48204;BME280;33994;50.998;5.864;2022-12-07T03:40:25;101296.53;;;3.85;100.00
48204;BME280;33994;50.998;5.864;2022-12-07T03:43:32;101290.53;;;3.87;100.00
48204;BME280;33994;50.998;5.864;2022-12-07T03:46:39;101290.50;;;3.86;100.00
48204;BME280;33994;50.998;5.864;2022-12-07T03:49:49;101282.75;;;3.86;100.00
48204;BME280;33994;50.998;5.864;2022-12-07T03:52:55;101278.50;;;3.89;100.00
48204;BME280;33994;50.998;5.864;2022-12-07T03:56:01;101288.88;;;3.91;100.00
48204;BME280;33994;50.998;5.864;2022-12-07T03:59:05;101281.97;;;3.92;100.00
48204;BME280;33994;50.998;5.864;2022-12-07T04:02:11;101274.22;;;3.92;100.00
48204;BME280;33994;50.998;5.864;2022-12-07T04:05:17;101271.63;;;3.90;100.00
48204;BME280;33994;50.998;5.864;2022-12-07T04:08:20;101270.75;;;3.89;100.00
48204;BME280;33994;50.998;5.864;2022-12-07T04:11:24;101280.16;;;3.86;100.00
48204;BME280;33994;50.998;5.864;2022-12-07T04:14:26;101276.66;;;3.84;100.00
48204;BME280;33994;50.998;5.864;2022-12-07T04:17:30;101271.44;;;3.81;100.00
48204;BME280;33994;50.998;5.864;2022-12-07T04:20:34;101276.63;;;3.81;100.00
48204;BME280;33994;50.998;5.864;2022-12-07T04:23:37;101274.00;;;3.79;100.00
48204;BME280;33994;50.998;5.864;2022-12-07T04:26:40;101276.50;;;3.75;100.00
48204;BME280;33994;50.998;5.864;2022-12-07T04:29:43;101273.88;;;3.73;100.00
48204;BME280;33994;50.998;5.864;2022-12-07T04:32:46;101281.59;;;3.72;100.00
48204;BME280;33994;50.998;5.864;2022-12-07T04:35:51;101277.22;;;3.69;100.00
48204;BME280;33994;50.998;5.864;2022-12-07T04:38:54;101274.63;;;3.69;100.00
48204;BME280;33994;50.998;5.864;2022-12-07T04:41:59;101277.28;;;3.71;100.00
48204;BME280;33994;50.998;5.864;2022-12-07T04:45:03;101272.13;;;3.72;100.00
48204;BME280;33994;50.998;5.864;2022-12-07T04:48:06;101275.56;;;3.73;100.00
48204;BME280;33994;50.998;5.864;2022-12-07T04:51:10;101274.75;;;3.74;100.00
48204;BME280;33994;50.998;5.864;2022-12-07T04:54:13;101263.53;;;3.73;100.00
48204;BME280;33994;50.998;5.864;2022-12-07T04:57:17;101268.66;;;3.72;100.00
48204;BME280;33994;50.998;5.864;2022-12-07T05:00:19;101267.78;;;3.70;100.00
48204;BME280;33994;50.998;5.864;2022-12-07T05:03:23;101267.78;;;3.70;100.00
48204;BME280;33994;50.998;5.864;2022-12-07T05:06:27;101265.13;;;3.68;100.00
48204;BME280;33994;50.998;5.864;2022-12-07T05:09:30;101264.28;;;3.68;100.00
48204;BME280;33994;50.998;5.864;2022-12-07T05:12:33;101260.81;;;3.69;100.00
48204;BME280;33994;50.998;5.864;2022-12-07T05:15:36;101262.59;;;3.70;100.00
48204;BME280;33994;50.998;5.864;2022-12-07T05:18:39;101259.97;;;3.68;100.00
48204;BME280;33994;50.998;5.864;2022-12-07T05:21:44;101270.34;;;3.70;100.00
48204;BME280;33994;50.998;5.864;2022-12-07T05:24:47;101261.75;;;3.71;100.00
48204;BME280;33994;50.998;5.864;2022-12-07T05:27:50;101273.91;;;3.75;100.00
48204;BME280;33994;50.998;5.864;2022-12-07T05:30:53;101267.81;;;3.73;100.00
48204;BME280;33994;50.998;5.864;2022-12-07T05:33:56;101276.50;;;3.75;100.00
48204;BME280;33994;50.998;5.864;2022-12-07T05:37:00;101268.72;;;3.75;100.00
48204;BME280;33994;50.998;5.864;2022-12-07T05:40:05;101264.44;;;3.77;100.00
48204;BME280;33994;50.998;5.864;2022-12-07T05:43:08;101270.50;;;3.77;100.00
48204;BME280;33994;50.998;5.864;2022-12-07T05:46:11;101265.34;;;3.77;100.00
48204;BME280;33994;50.998;5.864;2022-12-07T05:49:15;101271.44;;;3.81;100.00
48204;BME280;33994;50.998;5.864;2022-12-07T05:52:19;101259.38;;;3.81;100.00
48204;BME280;33994;50.998;5.864;2022-12-07T05:55:22;101270.63;;;3.83;100.00
48204;BME280;33994;50.998;5.864;2022-12-07T05:58:25;101271.44;;;3.81;100.00
48204;BME280;33994;50.998;5.864;2022-12-07T06:01:28;101276.63;;;3.81;100.00
48204;BME280;33994;50.998;5.864;2022-12-07T06:04:34;101257.59;;;3.79;100.00
48204;BME280;33994;50.998;5.864;2022-12-07T06:07:39;101267.94;;;3.79;100.00
48204;BME280;33994;50.998;5.864;2022-12-07T06:10:42;101260.16;;;3.77;100.00
48204;BME280;33994;50.998;5.864;2022-12-07T06:13:45;101255.00;;;3.77;100.00
48204;BME280;33994;50.998;5.864;2022-12-07T06:16:48;101261.03;;;3.78;100.00
48204;BME280;33994;50.998;5.864;2022-12-07T06:19:51;101262.69;;;3.76;100.00
48204;BME280;33994;50.998;5.864;2022-12-07T06:22:55;101261.91;;;3.78;100.00
48204;BME280;33994;50.998;5.864;2022-12-07T06:25:58;101267.94;;;3.79;100.00
48204;BME280;33994;50.998;5.864;2022-12-07T06:29:01;101271.44;;;3.81;100.00
48204;BME280;33994;50.998;5.864;2022-12-07T06:32:04;101270.56;;;3.80;100.00
48204;BME280;33994;50.998;5.864;2022-12-07T06:35:07;101263.69;;;3.82;100.00
48204;BME280;33994;50.998;5.864;2022-12-07T06:38:12;101266.28;;;3.82;100.00
48204;BME280;33994;50.998;5.864;2022-12-07T06:41:15;101269.75;;;3.83;100.00
48204;BME280;33994;50.998;5.864;2022-12-07T06:44:18;101268.91;;;3.84;100.00
48204;BME280;33994;50.998;5.864;2022-12-07T06:47:21;101266.31;;;3.84;100.00
48204;BME280;33994;50.998;5.864;2022-12-07T06:50:24;101265.50;;;3.85;100.00
48204;BME280;33994;50.998;5.864;2022-12-07T06:53:28;101259.41;;;3.83;100.00
48204;BME280;33994;50.998;5.864;2022-12-07T06:56:31;101270.63;;;3.83;100.00
48204;BME280;33994;50.998;5.864;2022-12-07T06:59:34;101274.91;;;3.83;100.00
48204;BME280;33994;50.998;5.864;2022-12-07T07:02:37;101261.09;;;3.81;100.00
48204;BME280;33994;50.998;5.864;2022-12-07T07:05:41;101268.81;;;3.79;100.00
48204;BME280;33994;50.998;5.864;2022-12-07T07:08:45;101258.44;;;3.78;100.00
48204;BME280;33994;50.998;5.864;2022-12-07T07:11:48;101270.53;;;3.79;100.00
48204;BME280;33994;50.998;5.864;2022-12-07T07:14:51;101267.06;;;3.78;100.00
48204;BME280;33994;50.998;5.864;2022-12-07T07:17:54;101268.78;;;3.78;100.00
48204;BME280;33994;50.998;5.864;2022-12-07T07:20:57;101274.84;;;3.78;100.00
48204;BME280;33994;50.998;5.864;2022-12-07T07:24:01;101275.72;;;3.79;100.00
48204;BME280;33994;50.998;5.864;2022-12-07T07:27:05;101273.13;;;3.79;100.00
48204;BME280;33994;50.998;5.864;2022-12-07T07:30:08;101271.41;;;3.79;100.00
48204;BME280;33994;50.998;5.864;2022-12-07T07:33:13;101271.41;;;3.79;100.00
48204;BME280;33994;50.998;5.864;2022-12-07T07:36:16;101264.44;;;3.77;100.00
48204;BME280;33994;50.998;5.864;2022-12-07T07:39:20;101267.94;;;3.77;100.00
48204;BME280;33994;50.998;5.864;2022-12-07T07:42:23;101272.19;;;3.75;100.00
48204;BME280;33994;50.998;5.864;2022-12-07T07:45:27;101276.50;;;3.75;100.00
48204;BME280;33994;50.998;5.864;2022-12-07T07:48:30;101276.41;;;3.72;100.00
48204;BME280;33994;50.998;5.864;2022-12-07T07:51:33;101275.47;;;3.68;100.00
48204;BME280;33994;50.998;5.864;2022-12-07T07:54:37;101283.13;;;3.62;100.00
48204;BME280;33994;50.998;5.864;2022-12-07T07:57:40;101278.78;;;3.61;100.00
48204;BME280;33994;50.998;5.864;2022-12-07T08:00:43;101294.28;;;3.59;100.00
48204;BME280;33994;50.998;5.864;2022-12-07T08:03:47;101285.59;;;3.57;100.00
48204;BME280;33994;50.998;5.864;2022-12-07T08:06:51;101289.88;;;3.55;100.00
48204;BME280;33994;50.998;5.864;2022-12-07T08:09:55;101291.56;;;3.53;100.00
48204;BME280;33994;50.998;5.864;2022-12-07T08:12:58;101291.56;;;3.53;100.00
48204;BME280;33994;50.998;5.864;2022-12-07T08:16:03;101290.66;;;3.51;100.00
48204;BME280;33994;50.998;5.864;2022-12-07T08:19:07;101288.03;;;3.50;100.00
48204;BME280;33994;50.998;5.864;2022-12-07T08:22:09;101288.94;;;3.50;100.00
48204;BME280;33994;50.998;5.864;2022-12-07T08:25:14;101290.66;;;3.51;100.00
48204;BME280;33994;50.998;5.864;2022-12-07T08:28:17;101292.34;;;3.49;100.00
48204;BME280;33994;50.998;5.864;2022-12-07T08:31:20;101290.66;;;3.51;100.00
48204;BME280;33994;50.998;5.864;2022-12-07T08:34:23;101298.41;;;3.51;100.00
48204;BME280;33994;50.998;5.864;2022-12-07T08:37:26;101298.41;;;3.51;100.00
48204;BME280;33994;50.998;5.864;2022-12-07T08:40:31;101305.34;;;3.52;100.00
48204;BME280;33994;50.998;5.864;2022-12-07T08:43:34;101308.78;;;3.51;100.00
48204;BME280;33994;50.998;5.864;2022-12-07T08:46:39;101307.94;;;3.54;100.00
48204;BME280;33994;50.998;5.864;2022-12-07T08:49:47;101310.56;;;3.55;100.00
48204;BME280;33994;50.998;5.864;2022-12-07T08:52:53;101301.13;;;3.57;100.00
48204;BME280;33994;50.998;5.864;2022-12-07T08:55:59;101302.13;;;3.62;100.00
48204;BME280;33994;50.998;5.864;2022-12-07T08:59:02;101295.31;;;3.68;100.00
48204;BME280;33994;50.998;5.864;2022-12-07T09:02:06;101301.50;;;3.76;100.00
48204;BME280;33994;50.998;5.864;2022-12-07T09:05:09;101305.09;;;3.81;100.00
48204;BME280;33994;50.998;5.864;2022-12-07T09:08:12;101305.09;;;3.82;100.00
48204;BME280;33994;50.998;5.864;2022-12-07T09:11:16;101305.97;;;3.83;100.00
48204;BME280;33994;50.998;5.864;2022-12-07T09:14:19;101312.00;;;3.83;100.00
48204;BME280;33994;50.998;5.864;2022-12-07T09:17:22;101308.56;;;3.84;100.00
48204;BME280;33994;50.998;5.864;2022-12-07T09:20:25;101306.91;;;3.86;100.00
48204;BME280;33994;50.998;5.864;2022-12-07T09:23:28;101306.03;;;3.86;100.00
48204;BME280;33994;50.998;5.864;2022-12-07T09:26:33;101308.63;;;3.86;100.00
48204;BME280;33994;50.998;5.864;2022-12-07T09:29:36;101306.09;;;3.89;100.00
48204;BME280;33994;50.998;5.864;2022-12-07T09:32:39;101306.16;;;3.92;100.00
48204;BME280;33994;50.998;5.864;2022-12-07T09:35:44;101307.06;;;3.94;100.00
48204;BME280;33994;50.998;5.864;2022-12-07T09:38:48;101314.81;;;3.94;100.00
48204;BME280;33994;50.998;5.864;2022-12-07T09:41:52;101316.56;;;3.95;100.00
48204;BME280;33994;50.998;5.864;2022-12-07T09:44:55;101314.88;;;3.97;100.00
48204;BME280;33994;50.998;5.864;2022-12-07T09:47:59;101311.53;;;4.01;100.00
48204;BME280;33994;50.998;5.864;2022-12-07T09:51:03;101316.75;;;4.04;100.00
48204;BME280;33994;50.998;5.864;2022-12-07T09:54:16;101306.44;;;4.06;100.00
48204;BME280;33994;50.998;5.864;2022-12-07T09:57:27;101303.03;;;4.08;100.00
48204;BME280;33994;50.998;5.864;2022-12-07T10:00:31;101303.09;;;4.11;100.00
48204;BME280;33994;50.998;5.864;2022-12-07T10:03:35;101292.78;;;4.14;100.00
48204;BME280;33994;50.998;5.864;2022-12-07T10:06:39;101291.09;;;4.17;100.00
48204;BME280;33994;50.998;5.864;2022-12-07T10:09:42;101297.16;;;4.17;100.00
48204;BME280;33994;50.998;5.864;2022-12-07T10:12:58;101283.34;;;4.18;100.00
48204;BME280;33994;50.998;5.864;2022-12-07T10:16:02;101289.47;;;4.22;100.00
48204;BME280;33994;50.998;5.864;2022-12-07T10:19:24;101285.22;;;4.25;100.00
48204;BME280;33994;50.998;5.864;2022-12-07T10:22:27;101282.69;;;4.30;100.00
48204;BME280;33994;50.998;5.864;2022-12-07T10:25:32;101281.09;;;4.36;100.00
48204;BME280;33994;50.998;5.864;2022-12-07T10:28:37;101274.31;;;4.43;100.00
48204;BME280;33994;50.998;5.864;2022-12-07T10:31:40;101265.88;;;4.53;100.00
48204;BME280;33994;50.998;5.864;2022-12-07T10:34:44;101271.13;;;4.59;99.53
48204;BME280;33994;50.998;5.864;2022-12-07T10:37:48;101260.03;;;4.68;98.89
48204;BME280;33994;50.998;5.864;2022-12-07T10:41:03;101269.66;;;4.75;98.42
48204;BME280;33994;50.998;5.864;2022-12-07T10:44:20;101260.28;;;4.83;97.99
48204;BME280;33994;50.998;5.864;2022-12-07T10:47:33;101259.53;;;4.89;97.83
48204;BME280;33994;50.998;5.864;2022-12-07T10:50:52;101259.13;;;5.21;97.48
48204;BME280;33994;50.998;5.864;2022-12-07T10:54:07;101253.91;;;5.18;95.31
48204;BME280;33994;50.998;5.864;2022-12-07T10:57:26;101239.16;;;5.14;94.23
48204;BME280;33994;50.998;5.864;2022-12-07T11:00:37;101233.97;;;5.14;93.89
48204;BME280;33994;50.998;5.864;2022-12-07T11:04:11;101230.56;;;5.15;93.60
48204;BME280;33994;50.998;5.864;2022-12-07T11:07:27;101233.19;;;5.19;93.25
48204;BME280;33994;50.998;5.864;2022-12-07T11:10:42;101223.69;;;5.20;92.58
48204;BME280;33994;50.998;5.864;2022-12-07T11:13:53;101212.47;;;5.21;92.46
48204;BME280;33994;50.998;5.864;2022-12-07T11:17:04;101216.78;;;5.19;91.93
48204;BME280;33994;50.998;5.864;2022-12-07T11:20:18;101209.00;;;5.20;91.96
48204;BME280;33994;50.998;5.864;2022-12-07T11:23:34;101201.22;;;5.19;91.91
48204;BME280;33994;50.998;5.864;2022-12-07T11:26:51;101192.53;;;5.17;91.90
48204;BME280;33994;50.998;5.864;2022-12-07T11:30:08;101196.84;;;5.15;91.82
48204;BME280;33994;50.998;5.864;2022-12-07T11:33:21;101192.47;;;5.14;91.52
48204;BME280;33994;50.998;5.864;2022-12-07T11:36:36;101197.72;;;5.17;91.70
48204;BME280;33994;50.998;5.864;2022-12-07T11:39:44;101190.16;;;5.35;92.48
48204;BME280;33994;50.998;5.864;2022-12-07T11:42:52;101190.34;;;5.50;91.54
48204;BME280;33994;50.998;5.864;2022-12-07T11:46:00;101189.44;;;5.45;89.89
48204;BME280;33994;50.998;5.864;2022-12-07T11:49:12;101190.25;;;5.43;90.02
48204;BME280;33994;50.998;5.864;2022-12-07T11:52:24;101189.41;;;5.42;90.13
48204;BME280;33994;50.998;5.864;2022-12-07T11:55:40;101185.03;;;5.40;90.15
48204;BME280;33994;50.998;5.864;2022-12-07T11:58:49;101182.53;;;5.47;90.73
48204;BME280;33994;50.998;5.864;2022-12-07T12:02:00;101180.03;;;5.55;90.42
48204;BME280;33994;50.998;5.864;2022-12-07T12:05:13;101177.47;;;5.56;89.72
48204;BME280;33994;50.998;5.864;2022-12-07T12:08:21;101170.50;;;5.55;89.32
48204;BME280;33994;50.998;5.864;2022-12-07T12:11:40;101169.63;;;5.53;89.43
48204;BME280;33994;50.998;5.864;2022-12-07T12:14:59;101165.31;;;5.55;89.91
48204;BME280;33994;50.998;5.864;2022-12-07T12:18:34;101167.22;;;5.69;89.58
48204;BME280;33994;50.998;5.864;2022-12-07T12:21:46;101162.22;;;5.87;88.37
48204;BME280;33994;50.998;5.864;2022-12-07T12:24:52;101158.63;;;5.76;87.87
48204;BME280;33994;50.998;5.864;2022-12-07T12:27:58;101158.56;;;5.70;88.00
48204;BME280;33994;50.998;5.864;2022-12-07T12:31:07;101149.88;;;5.65;88.34
48204;BME280;33994;50.998;5.864;2022-12-07T12:34:33;101146.38;;;5.63;88.29
48204;BME280;33994;50.998;5.864;2022-12-07T12:37:45;101152.44;;;5.62;88.44
48204;BME280;33994;50.998;5.864;2022-12-07T12:40:48;101148.97;;;5.63;88.71
48204;BME280;33994;50.998;5.864;2022-12-07T12:43:52;101148.09;;;5.61;89.14
48204;BME280;33994;50.998;5.864;2022-12-07T12:46:56;101139.44;;;5.62;89.08
48204;BME280;33994;50.998;5.864;2022-12-07T12:50:23;101132.53;;;5.61;89.18
48204;BME280;33994;50.998;5.864;2022-12-07T12:53:28;101125.63;;;5.63;89.09
48204;BME280;33994;50.998;5.864;2022-12-07T12:56:39;101126.44;;;5.60;89.34
48204;BME280;33994;50.998;5.864;2022-12-07T12:59:57;101121.28;;;5.62;89.35
48204;BME280;33994;50.998;5.864;2022-12-07T13:03:00;101123.06;;;5.64;89.27
48204;BME280;33994;50.998;5.864;2022-12-07T13:06:17;101122.16;;;5.61;89.25
48204;BME280;33994;50.998;5.864;2022-12-07T13:09:25;101126.47;;;5.63;89.39
48204;BME280;33994;50.998;5.864;2022-12-07T13:12:29;101117.88;;;5.64;89.52
48204;BME280;33994;50.998;5.864;2022-12-07T13:15:34;101123.06;;;5.64;89.90
48204;BME280;33994;50.998;5.864;2022-12-07T13:18:38;101113.53;;;5.68;89.76
48204;BME280;33994;50.998;5.864;2022-12-07T13:21:43;101113.53;;;5.68;89.72
48204;BME280;33994;50.998;5.864;2022-12-07T13:24:47;101111.84;;;5.68;89.82
48204;BME280;33994;50.998;5.864;2022-12-07T13:27:57;101103.16;;;5.68;89.88
48204;BME280;33994;50.998;5.864;2022-12-07T13:31:10;101103.16;;;5.68;89.84
48204;BME280;33994;50.998;5.864;2022-12-07T13:34:31;101097.97;;;5.65;89.89
48204;BME280;33994;50.998;5.864;2022-12-07T13:37:35;101093.66;;;5.67;89.86
48204;BME280;33994;50.998;5.864;2022-12-07T13:40:40;101089.31;;;5.64;89.80
48204;BME280;33994;50.998;5.864;2022-12-07T13:43:49;101087.56;;;5.62;89.99
48204;BME280;33994;50.998;5.864;2022-12-07T13:46:57;101088.41;;;5.62;89.91
48204;BME280;33994;50.998;5.864;2022-12-07T13:50:22;101078.03;;;5.61;89.73
48204;BME280;33994;50.998;5.864;2022-12-07T13:53:26;101078.91;;;5.63;89.46
48204;BME280;33994;50.998;5.864;2022-12-07T13:56:34;101084.09;;;5.61;89.34
48204;BME280;33994;50.998;5.864;2022-12-07T13:59:38;101082.38;;;5.62;89.58
48204;BME280;33994;50.998;5.864;2022-12-07T14:02:55;101086.69;;;5.63;89.42
48204;BME280;33994;50.998;5.864;2022-12-07T14:06:18;101076.31;;;5.61;89.23
48204;BME280;33994;50.998;5.864;2022-12-07T14:09:23;101072.84;;;5.61;89.20
48204;BME280;33994;50.998;5.864;2022-12-07T14:12:30;101065.91;;;5.59;89.34
48204;BME280;33994;50.998;5.864;2022-12-07T14:15:34;101066.75;;;5.58;89.05
48204;BME280;33994;50.998;5.864;2022-12-07T14:18:39;101062.44;;;5.59;89.01
48204;BME280;33994;50.998;5.864;2022-12-07T14:21:42;101064.16;;;5.58;88.96
48204;BME280;33994;50.998;5.864;2022-12-07T14:24:46;101061.56;;;5.58;89.41
48204;BME280;33994;50.998;5.864;2022-12-07T14:27:55;101065.91;;;5.56;89.31
48204;BME280;33994;50.998;5.864;2022-12-07T14:30:59;101064.09;;;5.51;89.29
48204;BME280;33994;50.998;5.864;2022-12-07T14:34:02;101059.75;;;5.48;89.37
48204;BME280;33994;50.998;5.864;2022-12-07T14:37:07;101056.28;;;5.46;89.14
48204;BME280;33994;50.998;5.864;2022-12-07T14:40:13;101053.69;;;5.46;88.94
48204;BME280;33994;50.998;5.864;2022-12-07T14:43:18;101042.44;;;5.46;88.92
48204;BME280;33994;50.998;5.864;2022-12-07T14:46:22;101041.50;;;5.41;89.06
48204;BME280;33994;50.998;5.864;2022-12-07T14:49:25;101042.38;;;5.38;88.95
48204;BME280;33994;50.998;5.864;2022-12-07T14:52:29;101044.91;;;5.33;89.03
48204;BME280;33994;50.998;5.864;2022-12-07T14:55:32;101044.84;;;5.29;89.35
48204;BME280;33994;50.998;5.864;2022-12-07T14:58:36;101038.75;;;5.24;89.77
48204;BME280;33994;50.998;5.864;2022-12-07T15:01:39;101036.13;;;5.19;89.77
48204;BME280;33994;50.998;5.864;2022-12-07T15:04:42;101023.97;;;5.15;90.20
48204;BME280;33994;50.998;5.864;2022-12-07T15:07:46;101027.41;;;5.11;90.11
48204;BME280;33994;50.998;5.864;2022-12-07T15:10:50;101024.78;;;5.09;90.54
48204;BME280;33994;50.998;5.864;2022-12-07T15:13:54;101029.91;;;5.06;90.53
48204;BME280;33994;50.998;5.864;2022-12-07T15:16:57;101022.97;;;5.02;90.49
48204;BME280;33994;50.998;5.864;2022-12-07T15:19:59;101025.53;;;4.99;90.85
48204;BME280;33994;50.998;5.864;2022-12-07T15:23:02;101015.09;;;4.93;90.76
48204;BME280;33994;50.998;5.864;2022-12-07T15:26:05;101017.56;;;4.87;91.06
48204;BME280;33994;50.998;5.864;2022-12-07T15:29:10;101017.56;;;4.84;91.08
48204;BME280;33994;50.998;5.864;2022-12-07T15:32:13;101021.84;;;4.82;91.31
48204;BME280;33994;50.998;5.864;2022-12-07T15:35:16;101019.25;;;4.82;91.46
48204;BME280;33994;50.998;5.864;2022-12-07T15:38:19;101010.56;;;4.78;91.30
48204;BME280;33994;50.998;5.864;2022-12-07T15:41:23;101007.13;;;4.78;91.47
48204;BME280;33994;50.998;5.864;2022-12-07T15:44:27;101009.66;;;4.75;91.31
48204;BME280;33994;50.998;5.864;2022-12-07T15:47:30;101010.47;;;4.71;91.00
48204;BME280;33994;50.998;5.864;2022-12-07T15:50:34;101009.63;;;4.69;90.97
48204;BME280;33994;50.998;5.864;2022-12-07T15:53:38;101016.50;;;4.68;90.98
48204;BME280;33994;50.998;5.864;2022-12-07T15:56:41;101011.31;;;4.68;91.11
48204;BME280;33994;50.998;5.864;2022-12-07T15:59:45;101013.88;;;4.67;91.10
48204;BME280;33994;50.998;5.864;2022-12-07T16:02:48;101009.53;;;4.62;91.06
48204;BME280;33994;50.998;5.864;2022-12-07T16:05:52;101009.47;;;4.58;91.21
48204;BME280;33994;50.998;5.864;2022-12-07T16:08:55;101006.84;;;4.56;91.79
48204;BME280;33994;50.998;5.864;2022-12-07T16:11:58;101000.78;;;4.56;92.11
48204;BME280;33994;50.998;5.864;2022-12-07T16:15:03;101008.59;;;4.57;92.36
48204;BME280;33994;50.998;5.864;2022-12-07T16:18:06;100999.13;;;4.59;92.74
48204;BME280;33994;50.998;5.864;2022-12-07T16:21:09;100990.47;;;4.60;93.17
48204;BME280;33994;50.998;5.864;2022-12-07T16:24:12;100987.94;;;4.63;93.48